sensor_id;sensor_type;location;lat;lon;timestamp;pressure;altitude;pressure_sealevel;temperature;humidity
69153;BME280;56261;51.580;4.578;2022-11-04T00:01:23;100279.13;;;9.09;100.00
69153;BME280;56261;51.580;4.578;2022-11-04T00:03:49;100285.53;;;9.23;100.00
69153;BME280;56261;51.580;4.578;2022-11-04T00:06:14;100283.91;;;9.13;100.00
69153;BME280;56261;51.580;4.578;2022-11-04T00:08:40;100293.66;;;9.21;100.00
69153;BME280;56261;51.580;4.578;2022-11-04T00:11:05;100295.78;;;9.34;100.00
69153;BME280;56261;51.580;4.578;2022-11-04T00:13:49;100290.56;;;9.41;100.00
69153;BME280;56261;51.580;4.578;2022-11-04T00:16:15;100298.41;;;9.42;100.00
69153;BME280;56261;51.580;4.578;2022-11-04T00:18:59;100311.09;;;9.55;100.00
69153;BME280;56261;51.580;4.578;2022-11-04T00:21:26;100320.56;;;9.57;100.00
69153;BME280;56261;51.580;4.578;2022-11-04T00:24:11;100319.66;;;9.73;100.00
69153;BME280;56261;51.580;4.578;2022-11-04T00:26:57;100315.16;;;9.74;100.00
69153;BME280;56261;51.580;4.578;2022-11-04T00:29:41;100325.69;;;9.67;100.00
69153;BME280;56261;51.580;4.578;2022-11-04T00:32:06;100324.75;;;9.60;100.00
69153;BME280;56261;51.580;4.578;2022-11-04T00:34:50;100329.28;;;9.51;100.00
69153;BME280;56261;51.580;4.578;2022-11-04T00:37:15;100304.28;;;9.29;100.00
69153;BME280;56261;51.580;4.578;2022-11-04T00:39:41;100318.19;;;9.40;100.00
69153;BME280;56261;51.580;4.578;2022-11-04T00:42:06;100324.88;;;9.35;100.00
69153;BME280;56261;51.580;4.578;2022-11-04T00:44:31;100340.84;;;9.35;100.00
69153;BME280;56261;51.580;4.578;2022-11-04T00:46:57;100334.69;;;9.35;100.00
69153;BME280;56261;51.580;4.578;2022-11-04T00:49:22;100339.44;;;9.48;100.00
69153;BME280;56261;51.580;4.578;2022-11-04T00:51:47;100326.28;;;9.46;100.00
69153;BME280;56261;51.580;4.578;2022-11-04T00:54:13;100339.28;;;9.49;100.00
69153;BME280;56261;51.580;4.578;2022-11-04T00:56:39;100339.00;;;9.67;100.00
69153;BME280;56261;51.580;4.578;2022-11-04T00:59:05;100337.84;;;9.62;100.00
69153;BME280;56261;51.580;4.578;2022-11-04T01:01:31;100336.66;;;9.64;100.00
69153;BME280;56261;51.580;4.578;2022-11-04T01:03:56;100335.25;;;9.53;100.00
69153;BME280;56261;51.580;4.578;2022-11-04T01:06:23;100338.59;;;9.55;100.00
69153;BME280;56261;51.580;4.578;2022-11-04T01:08:57;100337.28;;;9.51;100.00
69153;BME280;56261;51.580;4.578;2022-11-04T01:11:24;100349.25;;;9.47;100.00
69153;BME280;56261;51.580;4.578;2022-11-04T01:13:50;100349.44;;;9.46;100.00
69153;BME280;56261;51.580;4.578;2022-11-04T01:16:16;100337.47;;;9.42;100.00
69153;BME280;56261;51.580;4.578;2022-11-04T01:18:42;100346.78;;;9.46;100.00
69153;BME280;56261;51.580;4.578;2022-11-04T01:21:10;100342.66;;;9.35;100.00
69153;BME280;56261;51.580;4.578;2022-11-04T01:23:36;100346.66;;;9.31;100.00
69153;BME280;56261;51.580;4.578;2022-11-04T01:26:06;100346.38;;;9.26;100.00
69153;BME280;56261;51.580;4.578;2022-11-04T01:28:31;100339.56;;;9.23;100.00
69153;BME280;56261;51.580;4.578;2022-11-04T01:30:57;100341.78;;;9.11;100.00
69153;BME280;56261;51.580;4.578;2022-11-04T01:33:22;100336.59;;;9.18;100.00
69153;BME280;56261;51.580;4.578;2022-11-04T01:35:49;100346.75;;;9.14;100.00
69153;BME280;56261;51.580;4.578;2022-11-04T01:38:15;100347.63;;;9.07;100.00
69153;BME280;56261;51.580;4.578;2022-11-04T01:40:40;100359.09;;;8.99;100.00
69153;BME280;56261;51.580;4.578;2022-11-04T01:43:14;100356.13;;;8.94;100.00
69153;BME280;56261;51.580;4.578;2022-11-04T01:45:44;100365.25;;;9.00;100.00
69153;BME280;56261;51.580;4.578;2022-11-04T01:48:16;100361.44;;;9.02;100.00
69153;BME280;56261;51.580;4.578;2022-11-04T01:50:45;100351.78;;;9.01;100.00
69153;BME280;56261;51.580;4.578;2022-11-04T01:53:17;100362.13;;;8.96;100.00
69153;BME280;56261;51.580;4.578;2022-11-04T01:55:50;100366.25;;;8.99;100.00
69153;BME280;56261;51.580;4.578;2022-11-04T01:58:17;100364.63;;;8.98;100.00
69153;BME280;56261;51.580;4.578;2022-11-04T02:00:45;100362.47;;;8.93;100.00
69153;BME280;56261;51.580;4.578;2022-11-04T02:03:23;100368.13;;;8.82;100.00
69153;BME280;56261;51.580;4.578;2022-11-04T02:05:51;100370.97;;;8.80;100.00
69153;BME280;56261;51.580;4.578;2022-11-04T02:08:17;100368.78;;;8.84;100.00
69153;BME280;56261;51.580;4.578;2022-11-04T02:11:02;100360.84;;;8.76;100.00
69153;BME280;56261;51.580;4.578;2022-11-04T02:13:29;100364.19;;;8.69;100.00
69153;BME280;56261;51.580;4.578;2022-11-04T02:16:22;100367.00;;;8.76;100.00
69153;BME280;56261;51.580;4.578;2022-11-04T02:19:13;100373.13;;;8.68;100.00
69153;BME280;56261;51.580;4.578;2022-11-04T02:24:41;100368.31;;;8.72;100.00
69153;BME280;56261;51.580;4.578;2022-11-04T02:35:27;100376.81;;;8.59;100.00
69153;BME280;56261;51.580;4.578;2022-11-04T02:38:20;100384.31;;;8.56;100.00
69153;BME280;56261;51.580;4.578;2022-11-04T02:43:40;100393.59;;;8.51;100.00
69153;BME280;56261;51.580;4.578;2022-11-04T02:49:25;100388.94;;;8.45;100.00
69153;BME280;56261;51.580;4.578;2022-11-04T02:52:11;100383.31;;;8.40;100.00
69153;BME280;56261;51.580;4.578;2022-11-04T02:54:45;100388.94;;;8.45;100.00
69153;BME280;56261;51.580;4.578;2022-11-04T02:57:17;100390.44;;;8.40;100.00
69153;BME280;56261;51.580;4.578;2022-11-04T02:59:48;100385.97;;;8.40;100.00
69153;BME280;56261;51.580;4.578;2022-11-04T03:02:27;100383.31;;;8.40;100.00
69153;BME280;56261;51.580;4.578;2022-11-04T03:04:56;100387.31;;;8.44;100.00
69153;BME280;56261;51.580;4.578;2022-11-04T03:07:26;100385.28;;;8.38;100.00
69153;BME280;56261;51.580;4.578;2022-11-04T03:09:58;100391.63;;;8.45;100.00
69153;BME280;56261;51.580;4.578;2022-11-04T03:12:28;100386.97;;;8.47;100.00
69153;BME280;56261;51.580;4.578;2022-11-04T03:15:01;100395.41;;;8.35;100.00
69153;BME280;56261;51.580;4.578;2022-11-04T03:17:38;100382.31;;;8.33;100.00
69153;BME280;56261;51.580;4.578;2022-11-04T03:20:10;100383.78;;;8.27;100.00
69153;BME280;56261;51.580;4.578;2022-11-04T03:22:39;100385.47;;;8.28;100.00
69153;BME280;56261;51.580;4.578;2022-11-04T03:25:06;100393.59;;;8.27;100.00
69153;BME280;56261;51.580;4.578;2022-11-04T03:27:47;100395.91;;;8.22;100.00
69153;BME280;56261;51.580;4.578;2022-11-04T03:30:18;100390.75;;;8.20;100.00
69153;BME280;56261;51.580;4.578;2022-11-04T03:33:06;100387.94;;;8.22;100.00
69153;BME280;56261;51.580;4.578;2022-11-04T03:35:35;100393.25;;;8.14;100.00
69153;BME280;56261;51.580;4.578;2022-11-04T03:38:00;100393.75;;;8.17;100.00
69153;BME280;56261;51.580;4.578;2022-11-04T03:40:26;100389.75;;;8.05;100.00
69153;BME280;56261;51.580;4.578;2022-11-04T03:43:01;100398.53;;;8.05;100.00
69153;BME280;56261;51.580;4.578;2022-11-04T03:45:28;100393.41;;;8.04;100.00
69153;BME280;56261;51.580;4.578;2022-11-04T03:47:55;100395.72;;;8.07;100.00
69153;BME280;56261;51.580;4.578;2022-11-04T03:50:30;100398.06;;;8.02;100.00
69153;BME280;56261;51.580;4.578;2022-11-04T03:52:57;100400.88;;;8.00;100.00
69153;BME280;56261;51.580;4.578;2022-11-04T03:55:30;100397.69;;;7.97;100.00
69153;BME280;56261;51.580;4.578;2022-11-04T03:58:11;100398.19;;;7.92;100.00
69153;BME280;56261;51.580;4.578;2022-11-04T04:00:51;100396.19;;;7.94;100.00
69153;BME280;56261;51.580;4.578;2022-11-04T04:03:24;100402.84;;;7.98;100.00
69153;BME280;56261;51.580;4.578;2022-11-04T04:05:59;100405.66;;;7.97;100.00
69153;BME280;56261;51.580;4.578;2022-11-04T04:19:57;100409.63;;;7.84;100.00
69153;BME280;56261;51.580;4.578;2022-11-04T04:22:33;100410.44;;;7.77;100.00
69153;BME280;56261;51.580;4.578;2022-11-04T04:25:05;100421.06;;;7.85;100.00
69153;BME280;56261;51.580;4.578;2022-11-04T04:27:52;100417.91;;;7.81;100.00
69153;BME280;56261;51.580;4.578;2022-11-04T04:30:20;100420.75;;;7.80;100.00
69153;BME280;56261;51.580;4.578;2022-11-04T04:32:48;100425.56;;;7.84;100.00
69153;BME280;56261;51.580;4.578;2022-11-04T04:35:16;100431.69;;;7.85;100.00
69153;BME280;56261;51.580;4.578;2022-11-04T04:38:03;100434.19;;;7.95;100.00
69153;BME280;56261;51.580;4.578;2022-11-04T04:40:59;100438.03;;;8.00;100.00
69153;BME280;56261;51.580;4.578;2022-11-04T04:43:44;100427.09;;;8.03;100.00
69153;BME280;56261;51.580;4.578;2022-11-04T04:46:28;100430.41;;;8.05;100.00
69153;BME280;56261;51.580;4.578;2022-11-04T04:49:03;100431.56;;;8.03;100.00
69153;BME280;56261;51.580;4.578;2022-11-04T04:51:29;100435.91;;;8.04;100.00
69153;BME280;56261;51.580;4.578;2022-11-04T04:53:54;100438.56;;;8.04;100.00
69153;BME280;56261;51.580;4.578;2022-11-04T04:56:20;100438.03;;;8.00;100.00
69153;BME280;56261;51.580;4.578;2022-11-04T04:58:45;100451.47;;;7.99;100.00
69153;BME280;56261;51.580;4.578;2022-11-04T05:01:10;100442.50;;;7.92;100.00
69153;BME280;56261;51.580;4.578;2022-11-04T05:03:36;100451.97;;;7.94;100.00
69153;BME280;56261;51.580;4.578;2022-11-04T05:06:01;100461.94;;;8.00;100.00
69153;BME280;56261;51.580;4.578;2022-11-04T05:08:27;100469.25;;;7.98;100.00
69153;BME280;56261;51.580;4.578;2022-11-04T05:10:52;100466.59;;;7.98;100.00
69153;BME280;56261;51.580;4.578;2022-11-04T05:13:17;100469.56;;;8.03;100.00
69153;BME280;56261;51.580;4.578;2022-11-04T05:15:54;100470.06;;;7.99;100.00
69153;BME280;56261;51.580;4.578;2022-11-04T05:18:20;100483.22;;;8.08;100.00
69153;BME280;56261;51.580;4.578;2022-11-04T05:20:45;100476.56;;;8.04;100.00
69153;BME280;56261;51.580;4.578;2022-11-04T05:23:11;100480.06;;;8.13;100.00
69153;BME280;56261;51.580;4.578;2022-11-04T05:25:38;100475.75;;;8.12;100.00
69153;BME280;56261;51.580;4.578;2022-11-04T05:28:04;100481.56;;;8.16;100.00
69153;BME280;56261;51.580;4.578;2022-11-04T05:30:31;100472.78;;;8.15;100.00
69153;BME280;56261;51.580;4.578;2022-11-04T05:32:56;100473.63;;;8.24;100.00
69153;BME280;56261;51.580;4.578;2022-11-04T05:35:21;100486.41;;;8.28;100.00
69153;BME280;56261;51.580;4.578;2022-11-04T05:37:47;100489.75;;;8.30;100.00
69153;BME280;56261;51.580;4.578;2022-11-04T05:40:13;100484.75;;;8.36;100.00
69153;BME280;56261;51.580;4.578;2022-11-04T05:42:38;100489.63;;;8.40;100.00
69153;BME280;56261;51.580;4.578;2022-11-04T05:45:04;100494.94;;;8.40;100.00
69153;BME280;56261;51.580;4.578;2022-11-04T05:47:32;100503.56;;;8.42;100.00
69153;BME280;56261;51.580;4.578;2022-11-04T05:49:58;100496.59;;;8.49;100.00
69153;BME280;56261;51.580;4.578;2022-11-04T05:52:23;100499.75;;;8.45;100.00
69153;BME280;56261;51.580;4.578;2022-11-04T05:54:48;100496.72;;;8.40;100.00
69153;BME280;56261;51.580;4.578;2022-11-04T05:57:14;100493.09;;;8.41;100.00
69153;BME280;56261;51.580;4.578;2022-11-04T05:59:39;100498.72;;;8.38;100.00
69153;BME280;56261;51.580;4.578;2022-11-04T06:02:04;100498.19;;;8.34;100.00
69153;BME280;56261;51.580;4.578;2022-11-04T06:04:30;100493.53;;;8.28;100.00
69153;BME280;56261;51.580;4.578;2022-11-04T06:06:55;100512.66;;;8.31;100.00
69153;BME280;56261;51.580;4.578;2022-11-04T06:09:20;100514.97;;;8.26;100.00
69153;BME280;56261;51.580;4.578;2022-11-04T06:12:10;100511.47;;;8.26;100.00
69153;BME280;56261;51.580;4.578;2022-11-04T06:14:36;100523.75;;;8.27;100.00
69153;BME280;56261;51.580;4.578;2022-11-04T06:17:02;100527.59;;;8.24;100.00
69153;BME280;56261;51.580;4.578;2022-11-04T06:19:28;100537.38;;;8.24;100.00
69153;BME280;56261;51.580;4.578;2022-11-04T06:21:53;100544.19;;;8.26;100.00
69153;BME280;56261;51.580;4.578;2022-11-04T06:24:19;100546.66;;;8.28;100.00
69153;BME280;56261;51.580;4.578;2022-11-04T06:26:44;100543.72;;;8.31;100.00
69153;BME280;56261;51.580;4.578;2022-11-04T06:29:10;100547.22;;;8.40;100.00
69153;BME280;56261;51.580;4.578;2022-11-04T06:31:35;100545.34;;;8.32;100.00
69153;BME280;56261;51.580;4.578;2022-11-04T06:34:01;100553.31;;;8.32;100.00
69153;BME280;56261;51.580;4.578;2022-11-04T06:36:26;100561.47;;;8.30;100.00
69153;BME280;56261;51.580;4.578;2022-11-04T06:38:52;100558.97;;;8.29;100.00
69153;BME280;56261;51.580;4.578;2022-11-04T06:41:17;100565.16;;;8.38;100.00
69153;BME280;56261;51.580;4.578;2022-11-04T06:43:43;100565.63;;;8.33;100.00
69153;BME280;56261;51.580;4.578;2022-11-04T06:46:37;100576.31;;;8.41;100.00
69153;BME280;56261;51.580;4.578;2022-11-04T06:49:04;100572.84;;;8.49;100.00
69153;BME280;56261;51.580;4.578;2022-11-04T06:51:30;100569.53;;;8.55;100.00
69153;BME280;56261;51.580;4.578;2022-11-04T06:53:55;100574.69;;;8.65;100.00
69153;BME280;56261;51.580;4.578;2022-11-04T06:56:21;100568.06;;;8.77;100.00
69153;BME280;56261;51.580;4.578;2022-11-04T06:58:48;100579.22;;;8.81;100.00
69153;BME280;56261;51.580;4.578;2022-11-04T07:01:15;100580.22;;;8.80;100.00
69153;BME280;56261;51.580;4.578;2022-11-04T07:03:40;100588.03;;;8.89;100.00
69153;BME280;56261;51.580;4.578;2022-11-04T07:06:07;100582.38;;;8.92;100.00
69153;BME280;56261;51.580;4.578;2022-11-04T07:08:33;100577.03;;;8.92;100.00
69153;BME280;56261;51.580;4.578;2022-11-04T07:10:58;100581.22;;;9.11;100.00
69153;BME280;56261;51.580;4.578;2022-11-04T07:13:23;100585.72;;;9.03;100.00
69153;BME280;56261;51.580;4.578;2022-11-04T07:15:49;100577.22;;;9.07;100.00
69153;BME280;56261;51.580;4.578;2022-11-04T07:18:14;100594.03;;;9.16;100.00
69153;BME280;56261;51.580;4.578;2022-11-04T07:20:39;100587.88;;;9.16;100.00
69153;BME280;56261;51.580;4.578;2022-11-04T07:23:05;100588.72;;;9.24;100.00
69153;BME280;56261;51.580;4.578;2022-11-04T07:25:30;100592.50;;;9.30;100.00
69153;BME280;56261;51.580;4.578;2022-11-04T07:27:56;100603.00;;;9.31;100.00
69153;BME280;56261;51.580;4.578;2022-11-04T07:30:21;100589.50;;;9.33;100.00
69153;BME280;56261;51.580;4.578;2022-11-04T07:32:47;100603.00;;;9.31;100.00
69153;BME280;56261;51.580;4.578;2022-11-04T07:35:13;100602.16;;;9.39;100.00
69153;BME280;56261;51.580;4.578;2022-11-04T07:37:38;100606.81;;;9.37;100.00
69153;BME280;56261;51.580;4.578;2022-11-04T07:40:04;100614.28;;;9.42;100.00
69153;BME280;56261;51.580;4.578;2022-11-04T07:42:30;100617.13;;;9.48;100.00
69153;BME280;56261;51.580;4.578;2022-11-04T07:44:56;100627.09;;;9.54;100.00
69153;BME280;56261;51.580;4.578;2022-11-04T07:47:21;100629.41;;;9.66;100.00
69153;BME280;56261;51.580;4.578;2022-11-04T07:49:46;100638.72;;;9.78;100.00
69153;BME280;56261;51.580;4.578;2022-11-04T07:52:12;100645.34;;;9.82;100.00
69153;BME280;56261;51.580;4.578;2022-11-04T07:54:37;100643.03;;;9.79;100.00
69153;BME280;56261;51.580;4.578;2022-11-04T07:57:03;100644.25;;;9.60;100.00
69153;BME280;56261;51.580;4.578;2022-11-04T07:59:28;100645.38;;;9.57;100.00
69153;BME280;56261;51.580;4.578;2022-11-04T08:01:53;100651.72;;;9.65;100.00
69153;BME280;56261;51.580;4.578;2022-11-04T08:04:19;100655.53;;;9.79;100.00
69153;BME280;56261;51.580;4.578;2022-11-04T08:06:44;100658.34;;;9.77;100.00
69153;BME280;56261;51.580;4.578;2022-11-04T08:09:09;100658.88;;;9.72;100.00
69153;BME280;56261;51.580;4.578;2022-11-04T08:11:35;100660.19;;;9.76;100.00
69153;BME280;56261;51.580;4.578;2022-11-04T08:14:02;100660.84;;;9.62;100.00
69153;BME280;56261;51.580;4.578;2022-11-04T08:16:28;100658.34;;;9.69;100.00
69153;BME280;56261;51.580;4.578;2022-11-04T08:18:53;100653.03;;;9.69;100.00
69153;BME280;56261;51.580;4.578;2022-11-04T08:21:20;100669.31;;;9.82;100.00
69153;BME280;56261;51.580;4.578;2022-11-04T08:23:46;100667.97;;;9.94;100.00
69153;BME280;56261;51.580;4.578;2022-11-04T08:26:15;100661.47;;;10.05;100.00
69153;BME280;56261;51.580;4.578;2022-11-04T08:28:42;100663.31;;;9.96;100.00
69153;BME280;56261;51.580;4.578;2022-11-04T08:31:22;100673.97;;;9.96;100.00
69153;BME280;56261;51.580;4.578;2022-11-04T08:33:49;100669.97;;;10.01;100.00
69153;BME280;56261;51.580;4.578;2022-11-04T08:36:18;100672.44;;;10.02;100.00
69153;BME280;56261;51.580;4.578;2022-11-04T08:38:43;100670.44;;;10.04;100.00
69153;BME280;56261;51.580;4.578;2022-11-04T08:41:11;100669.78;;;10.02;100.00
69153;BME280;56261;51.580;4.578;2022-11-04T08:43:37;100670.59;;;10.11;100.00
69153;BME280;56261;51.580;4.578;2022-11-04T08:46:05;100675.88;;;10.35;100.00
69153;BME280;56261;51.580;4.578;2022-11-04T08:48:30;100686.00;;;10.48;100.00
69153;BME280;56261;51.580;4.578;2022-11-04T08:50:57;100689.56;;;10.72;100.00
69153;BME280;56261;51.580;4.578;2022-11-04T08:53:24;100691.22;;;10.73;100.00
69153;BME280;56261;51.580;4.578;2022-11-04T08:55:50;100693.53;;;10.76;100.00
69153;BME280;56261;51.580;4.578;2022-11-04T08:58:16;100688.38;;;11.06;100.00
69153;BME280;56261;51.580;4.578;2022-11-04T09:00:41;100690.06;;;11.30;100.00
69153;BME280;56261;51.580;4.578;2022-11-04T09:03:07;100692.91;;;11.28;100.00
69153;BME280;56261;51.580;4.578;2022-11-04T09:05:33;100698.91;;;11.30;100.00
69153;BME280;56261;51.580;4.578;2022-11-04T09:08:00;100710.81;;;11.19;100.00
69153;BME280;56261;51.580;4.578;2022-11-04T09:10:26;100704.28;;;11.68;100.00
69153;BME280;56261;51.580;4.578;2022-11-04T09:12:51;100711.75;;;11.73;100.00
69153;BME280;56261;51.580;4.578;2022-11-04T09:15:17;100717.34;;;11.40;100.00
69153;BME280;56261;51.580;4.578;2022-11-04T09:17:42;100715.69;;;11.39;100.00
69153;BME280;56261;51.580;4.578;2022-11-04T09:20:08;100717.56;;;11.53;100.00
69153;BME280;56261;51.580;4.578;2022-11-04T09:22:34;100706.53;;;11.56;100.00
69153;BME280;56261;51.580;4.578;2022-11-04T09:25:00;100722.22;;;11.36;100.00
69153;BME280;56261;51.580;4.578;2022-11-04T09:27:25;100727.41;;;11.07;100.00
69153;BME280;56261;51.580;4.578;2022-11-04T09:29:51;100723.50;;;10.86;100.00
69153;BME280;56261;51.580;4.578;2022-11-04T09:32:16;100729.41;;;11.05;100.00
69153;BME280;56261;51.580;4.578;2022-11-04T09:34:41;100748.09;;;11.05;100.00
69153;BME280;56261;51.580;4.578;2022-11-04T09:37:07;100745.91;;;11.08;100.00
69153;BME280;56261;51.580;4.578;2022-11-04T09:39:32;100757.19;;;11.18;100.00
69153;BME280;56261;51.580;4.578;2022-11-04T09:45:10;100759.72;;;11.12;100.00
69153;BME280;56261;51.580;4.578;2022-11-04T09:47:38;100763.13;;;11.29;100.00
69153;BME280;56261;51.580;4.578;2022-11-04T09:50:07;100777.81;;;11.33;100.00
69153;BME280;56261;51.580;4.578;2022-11-04T09:52:42;100772.97;;;11.59;100.00
69153;BME280;56261;51.580;4.578;2022-11-04T09:55:27;100785.72;;;11.49;100.00
69153;BME280;56261;51.580;4.578;2022-11-04T09:57:56;100793.41;;;11.21;100.00
69153;BME280;56261;51.580;4.578;2022-11-04T10:00:25;100785.69;;;11.26;100.00
69153;BME280;56261;51.580;4.578;2022-11-04T10:03:14;100786.94;;;11.38;100.00
69153;BME280;56261;51.580;4.578;2022-11-04T10:08:46;100790.09;;;11.65;100.00
69153;BME280;56261;51.580;4.578;2022-11-04T10:20:03;100801.41;;;11.75;100.00
69153;BME280;56261;51.580;4.578;2022-11-04T10:27:50;100825.41;;;12.07;100.00
69153;BME280;56261;51.580;4.578;2022-11-04T10:30:21;100835.03;;;11.93;100.00
69153;BME280;56261;51.580;4.578;2022-11-04T10:38:09;100834.72;;;11.88;100.00
69153;BME280;56261;51.580;4.578;2022-11-04T10:40:38;100827.59;;;12.03;100.00
69153;BME280;56261;51.580;4.578;2022-11-04T10:43:08;100830.59;;;12.23;100.00
69153;BME280;56261;51.580;4.578;2022-11-04T10:48:28;100841.94;;;12.10;100.00
69153;BME280;56261;51.580;4.578;2022-11-04T10:50:57;100844.03;;;12.38;100.00
69153;BME280;56261;51.580;4.578;2022-11-04T10:53:26;100833.31;;;12.38;100.00
69153;BME280;56261;51.580;4.578;2022-11-04T10:58:31;100842.78;;;12.78;100.00
69153;BME280;56261;51.580;4.578;2022-11-04T11:03:47;100845.53;;;12.85;100.00
69153;BME280;56261;51.580;4.578;2022-11-04T11:06:30;100852.56;;;12.71;100.00
69153;BME280;56261;51.580;4.578;2022-11-04T11:08:58;100848.88;;;12.87;100.00
69153;BME280;56261;51.580;4.578;2022-11-04T11:11:42;100842.94;;;12.92;100.00
69153;BME280;56261;51.580;4.578;2022-11-04T11:16:41;100862.53;;;13.22;100.00
69153;BME280;56261;51.580;4.578;2022-11-04T11:19:15;100848.75;;;13.10;100.00
69153;BME280;56261;51.580;4.578;2022-11-04T11:21:53;100862.31;;;13.23;100.00
69153;BME280;56261;51.580;4.578;2022-11-04T11:24:20;100862.59;;;13.43;100.00
69153;BME280;56261;51.580;4.578;2022-11-04T11:26:48;100866.72;;;13.61;100.00
69153;BME280;56261;51.580;4.578;2022-11-04T11:29:21;100863.31;;;13.52;100.00
69153;BME280;56261;51.580;4.578;2022-11-04T11:31:49;100865.75;;;13.32;100.00
69153;BME280;56261;51.580;4.578;2022-11-04T11:34:42;100875.09;;;13.06;100.00
69153;BME280;56261;51.580;4.578;2022-11-04T11:37:22;100870.66;;;12.99;100.00
69153;BME280;56261;51.580;4.578;2022-11-04T11:39:49;100876.66;;;13.01;100.00
69153;BME280;56261;51.580;4.578;2022-11-04T11:42:15;100884.25;;;12.97;100.00
69153;BME280;56261;51.580;4.578;2022-11-04T11:44:44;100887.47;;;12.93;100.00
69153;BME280;56261;51.580;4.578;2022-11-04T11:47:21;100894.09;;;12.82;100.00
69153;BME280;56261;51.580;4.578;2022-11-04T11:50:13;100892.63;;;12.94;100.00
69153;BME280;56261;51.580;4.578;2022-11-04T11:52:40;100894.53;;;12.85;100.00
69153;BME280;56261;51.580;4.578;2022-11-04T11:55:19;100885.13;;;12.75;100.00
69153;BME280;56261;51.580;4.578;2022-11-04T11:58:04;100891.94;;;12.62;100.00
69153;BME280;56261;51.580;4.578;2022-11-04T12:00:45;100893.25;;;12.81;100.00
69153;BME280;56261;51.580;4.578;2022-11-04T12:06:06;100907.13;;;12.47;100.00
69153;BME280;56261;51.580;4.578;2022-11-04T12:13:59;100918.84;;;12.84;100.00
69153;BME280;56261;51.580;4.578;2022-11-04T12:24:29;100935.63;;;12.40;100.00
69153;BME280;56261;51.580;4.578;2022-11-04T12:27:17;100945.84;;;12.59;100.00
69153;BME280;56261;51.580;4.578;2022-11-04T12:30:06;100961.22;;;12.34;100.00
69153;BME280;56261;51.580;4.578;2022-11-04T12:35:30;100963.84;;;12.19;100.00
69153;BME280;56261;51.580;4.578;2022-11-04T12:46:11;100962.66;;;12.45;100.00
69153;BME280;56261;51.580;4.578;2022-11-04T12:56:37;100970.38;;;12.63;100.00
69153;BME280;56261;51.580;4.578;2022-11-04T12:59:32;100978.78;;;12.75;100.00
69153;BME280;56261;51.580;4.578;2022-11-04T13:02:24;100971.78;;;12.74;100.00
69153;BME280;56261;51.580;4.578;2022-11-04T13:05:08;100986.31;;;12.56;100.00
69153;BME280;56261;51.580;4.578;2022-11-04T13:07:49;100981.19;;;12.70;100.00
69153;BME280;56261;51.580;4.578;2022-11-04T13:10:26;100979.66;;;12.90;100.00
69153;BME280;56261;51.580;4.578;2022-11-04T13:12:54;100992.50;;;12.95;100.00
69153;BME280;56261;51.580;4.578;2022-11-04T13:15:26;100978.59;;;13.14;100.00
69153;BME280;56261;51.580;4.578;2022-11-04T13:17:57;100987.69;;;13.28;100.00
69153;BME280;56261;51.580;4.578;2022-11-04T13:22:58;101019.72;;;12.60;100.00
69153;BME280;56261;51.580;4.578;2022-11-04T13:25:30;101021.91;;;12.34;100.00
69153;BME280;56261;51.580;4.578;2022-11-04T13:27:58;101030.75;;;11.55;100.00
69153;BME280;56261;51.580;4.578;2022-11-04T13:36:06;101049.03;;;10.78;100.00
69153;BME280;56261;51.580;4.578;2022-11-04T13:38:43;101057.97;;;10.44;100.00
69153;BME280;56261;51.580;4.578;2022-11-04T13:44:10;101073.31;;;10.34;100.00
69153;BME280;56261;51.580;4.578;2022-11-04T13:46:37;101071.84;;;10.13;100.00
69153;BME280;56261;51.580;4.578;2022-11-04T13:49:17;101082.16;;;10.08;100.00
69153;BME280;56261;51.580;4.578;2022-11-04T13:52:02;101079.16;;;10.03;100.00
69153;BME280;56261;51.580;4.578;2022-11-04T13:54:39;101083.66;;;10.11;100.00
69153;BME280;56261;51.580;4.578;2022-11-04T13:57:08;101078.03;;;10.14;100.00
69153;BME280;56261;51.580;4.578;2022-11-04T13:59:34;101076.38;;;10.21;100.00
69153;BME280;56261;51.580;4.578;2022-11-04T14:04:42;101081.97;;;10.44;100.00
69153;BME280;56261;51.580;4.578;2022-11-04T14:07:09;101091.78;;;10.35;100.00
69153;BME280;56261;51.580;4.578;2022-11-04T14:27:42;101141.94;;;10.32;100.00
69153;BME280;56261;51.580;4.578;2022-11-04T14:33:04;101147.28;;;10.32;100.00
69153;BME280;56261;51.580;4.578;2022-11-04T14:35:31;101148.31;;;10.39;100.00
69153;BME280;56261;51.580;4.578;2022-11-04T14:38:03;101143.66;;;10.41;100.00
69153;BME280;56261;51.580;4.578;2022-11-04T14:40:47;101144.81;;;10.47;100.00
69153;BME280;56261;51.580;4.578;2022-11-04T14:43:29;101151.69;;;10.49;100.00
69153;BME280;56261;51.580;4.578;2022-11-04T14:46:00;101145.34;;;10.50;100.00
69153;BME280;56261;51.580;4.578;2022-11-04T14:48:26;101151.56;;;10.67;100.00
69153;BME280;56261;51.580;4.578;2022-11-04T14:50:53;101156.41;;;10.80;100.00
69153;BME280;56261;51.580;4.578;2022-11-04T14:53:27;101151.41;;;10.77;100.00
69153;BME280;56261;51.580;4.578;2022-11-04T14:56:16;101154.28;;;10.92;100.00
69153;BME280;56261;51.580;4.578;2022-11-04T15:01:27;101152.94;;;10.88;100.00
69153;BME280;56261;51.580;4.578;2022-11-04T15:03:55;101158.44;;;11.02;100.00
69153;BME280;56261;51.580;4.578;2022-11-04T15:06:28;101167.66;;;11.08;100.00
69153;BME280;56261;51.580;4.578;2022-11-04T15:08:54;101172.13;;;10.99;100.00
69153;BME280;56261;51.580;4.578;2022-11-04T15:11:23;101164.28;;;10.98;100.00
69153;BME280;56261;51.580;4.578;2022-11-04T15:14:20;101170.78;;;10.95;100.00
69153;BME280;56261;51.580;4.578;2022-11-04T15:16:49;101174.81;;;10.99;100.00
69153;BME280;56261;51.580;4.578;2022-11-04T15:19:36;101167.97;;;11.13;100.00